createdAt,value
2018-02-16T00:00:53.632Z,24.87
2018-02-16T00:03:21.119Z,22.20
2018-02-16T00:05:48.712Z,23.60
2018-02-16T00:08:16.794Z,23.90
2018-02-16T00:10:44.776Z,22.13
2018-02-16T00:13:12.640Z,22.47
2018-02-16T00:15:40.544Z,23.03
2018-02-16T00:18:08.777Z,23.03
2018-02-16T00:20:37.984Z,22.53
2018-02-16T00:23:05.587Z,22.27
2018-02-16T00:25:33.558Z,22.33
2018-02-16T00:28:01.469Z,23.00
2018-02-16T00:30:29.420Z,22.00
2018-02-16T00:32:57.930Z,23.40
2018-02-16T00:35:25.403Z,21.40
2018-02-16T00:37:53.014Z,22.70
2018-02-16T00:40:21.896Z,21.83
2018-02-16T00:42:49.509Z,23.27
2018-02-16T00:45:17.029Z,22.03
2018-02-16T00:47:45.265Z,21.60
2018-02-16T00:50:13.210Z,21.67
2018-02-16T00:52:40.960Z,21.83
2018-02-16T00:55:08.891Z,21.53
2018-02-16T00:57:36.679Z,23.90
2018-02-16T01:00:05.028Z,20.87
2018-02-16T01:02:32.961Z,22.90
2018-02-16T01:05:00.783Z,22.10
2018-02-16T01:07:28.477Z,21.63
2018-02-16T01:09:56.050Z,21.67
2018-02-16T01:12:23.569Z,21.10
2018-02-16T01:14:51.092Z,20.30
2018-02-16T01:17:18.948Z,19.10
2018-02-16T01:19:46.600Z,21.30
2018-02-16T01:22:14.149Z,20.60
2018-02-16T01:24:41.624Z,21.07
2018-02-16T01:27:09.137Z,20.63
2018-02-16T01:29:37.404Z,20.90
2018-02-16T01:32:04.876Z,21.90
2018-02-16T01:34:33.122Z,21.40
2018-02-16T01:37:00.612Z,20.40
2018-02-16T01:39:28.928Z,20.80
2018-02-16T01:41:56.428Z,20.30
2018-02-16T01:44:23.901Z,21.60
2018-02-16T01:46:51.376Z,20.13
2018-02-16T01:49:19.633Z,21.47
2018-02-16T01:51:47.104Z,20.37
2018-02-16T01:54:15.336Z,19.70
2018-02-16T01:56:42.828Z,19.77
2018-02-16T01:59:10.296Z,20.87
2018-02-16T02:01:38.533Z,20.70
2018-02-16T02:04:06.028Z,20.40
2018-02-16T02:06:33.496Z,20.80
2018-02-16T02:09:01.732Z,19.93
2018-02-16T02:11:29.215Z,21.47
2018-02-16T02:13:56.684Z,20.87
2018-02-16T02:16:24.949Z,20.80
2018-02-16T02:18:52.419Z,20.87
2018-02-16T02:21:20.659Z,19.10
2018-02-16T02:23:48.139Z,20.00
2018-02-16T02:26:15.608Z,20.43
2018-02-16T02:28:43.096Z,19.80
2018-02-16T02:31:10.567Z,21.10
2018-02-16T02:33:38.106Z,21.20
2018-02-16T02:36:06.364Z,22.53
2018-02-16T02:38:33.836Z,20.70
2018-02-16T02:41:02.077Z,19.80
2018-02-16T02:43:29.644Z,22.10
2018-02-16T02:45:57.124Z,19.37
2018-02-16T02:48:25.415Z,21.90
2018-02-16T02:50:53.666Z,20.13
2018-02-16T02:53:21.140Z,20.03
2018-02-16T02:55:49.395Z,19.00
2018-02-16T02:58:16.869Z,20.97
2018-02-16T03:00:45.145Z,19.40
2018-02-16T03:03:13.530Z,20.03
2018-02-16T03:05:41.772Z,21.40
2018-02-16T03:08:09.244Z,21.13
2018-02-16T03:10:37.501Z,18.93
2018-02-16T03:13:04.979Z,19.10
2018-02-16T03:15:34.016Z,21.80
2018-02-16T03:18:01.505Z,20.10
2018-02-16T03:20:28.975Z,20.77
2018-02-16T03:22:56.514Z,19.07
2018-02-16T03:25:24.725Z,19.80
2018-02-16T03:27:52.196Z,20.20
2018-02-16T03:30:19.696Z,18.97
2018-02-16T03:32:47.160Z,19.17
2018-02-16T03:35:14.655Z,20.23
2018-02-16T03:37:42.148Z,19.07
2018-02-16T03:40:10.384Z,19.17
2018-02-16T03:42:37.873Z,20.10
2018-02-16T03:45:05.344Z,20.50
2018-02-16T03:47:33.584Z,18.87
2018-02-16T03:50:01.108Z,17.90
2018-02-16T03:52:28.582Z,18.43
2018-02-16T03:54:56.080Z,20.90
2018-02-16T03:57:23.643Z,20.50
2018-02-16T03:59:51.212Z,19.57
2018-02-16T04:02:19.476Z,19.73
2018-02-16T04:04:46.944Z,21.13
2018-02-16T04:07:15.184Z,19.20
2018-02-16T04:09:42.665Z,19.73
2018-02-16T04:12:10.136Z,21.23
2018-02-16T04:14:37.656Z,19.83
2018-02-16T04:17:05.164Z,19.27
2018-02-16T04:19:33.406Z,20.27
2018-02-16T04:22:00.907Z,18.60
2018-02-16T04:24:29.149Z,20.30
2018-02-16T04:26:56.624Z,19.20
2018-02-16T04:29:24.904Z,20.07
2018-02-16T04:31:53.139Z,19.10
2018-02-16T04:34:20.608Z,21.33
2018-02-16T04:36:48.120Z,18.77
2018-02-16T04:39:16.360Z,19.87
2018-02-16T04:41:45.343Z,17.77
2018-02-16T04:44:12.836Z,18.40
2018-02-16T04:46:41.072Z,20.57
2018-02-16T04:49:08.547Z,19.07
2018-02-16T04:51:36.809Z,17.37
2018-02-16T04:54:05.231Z,18.00
2018-02-16T04:56:33.470Z,17.47
2018-02-16T04:59:01.000Z,18.80
2018-02-16T05:01:28.476Z,17.70
2018-02-16T05:03:55.954Z,19.23
2018-02-16T05:06:23.464Z,19.27
2018-02-16T05:08:50.939Z,18.27
2018-02-16T05:11:18.408Z,19.70
2018-02-16T05:13:45.951Z,19.33
2018-02-16T05:16:13.429Z,18.03
2018-02-16T05:18:40.905Z,19.20
2018-02-16T05:21:08.399Z,20.03
2018-02-16T05:23:36.637Z,18.33
2018-02-16T05:26:04.105Z,17.53
2018-02-16T05:28:31.637Z,18.80
2018-02-16T05:30:59.147Z,18.73
2018-02-16T05:33:27.384Z,20.03
2018-02-16T05:35:54.866Z,18.80
2018-02-16T05:38:22.436Z,19.40
2018-02-16T05:40:50.716Z,19.47
2018-02-16T05:43:18.188Z,18.10
2018-02-16T05:45:46.424Z,18.20
2018-02-16T05:48:13.909Z,17.27
2018-02-16T05:50:41.376Z,17.00
2018-02-16T05:53:09.633Z,18.03
2018-02-16T05:55:37.116Z,18.50
2018-02-16T05:58:05.359Z,17.20
2018-02-16T06:00:32.860Z,20.83
2018-02-16T06:03:01.100Z,17.73
2018-02-16T06:05:29.340Z,19.60
2018-02-16T06:07:56.834Z,18.47
2018-02-16T06:10:24.313Z,18.73
2018-02-16T06:12:52.560Z,18.50
2018-02-16T06:15:20.058Z,18.73
2018-02-16T06:17:48.325Z,19.57
2018-02-16T06:20:15.796Z,20.83
2018-02-16T06:22:44.042Z,18.27
2018-02-16T06:25:12.289Z,19.20
2018-02-16T06:27:39.768Z,20.73
2018-02-16T06:30:07.250Z,19.33
2018-02-16T06:32:34.720Z,18.60
2018-02-16T06:35:02.984Z,18.30
2018-02-16T06:37:30.473Z,19.57
2018-02-16T06:39:57.948Z,17.60
2018-02-16T06:42:25.467Z,19.47
2018-02-16T06:44:53.706Z,17.27
2018-02-16T06:47:21.199Z,17.10
2018-02-16T06:49:48.669Z,18.57
2018-02-16T06:52:16.909Z,17.90
2018-02-16T06:54:44.394Z,18.07
2018-02-16T06:57:11.863Z,19.80
2018-02-16T06:59:40.124Z,23.40
2018-02-16T07:02:07.600Z,23.70
2018-02-16T07:04:35.869Z,21.23
2018-02-16T07:07:04.134Z,21.10
2018-02-16T07:09:32.380Z,18.50
2018-02-16T07:11:59.856Z,18.47
2018-02-16T07:14:27.352Z,17.07
2018-02-16T07:16:55.601Z,18.20
2018-02-16T07:19:24.585Z,17.87
2018-02-16T07:21:52.064Z,18.63
2018-02-16T07:24:19.536Z,19.60
2018-02-16T07:26:47.800Z,19.17
2018-02-16T07:29:15.280Z,18.00
2018-02-16T07:31:42.763Z,17.10
2018-02-16T07:34:10.264Z,18.77
2018-02-16T07:36:38.509Z,17.90
2018-02-16T07:39:05.986Z,19.60
2018-02-16T07:41:33.472Z,19.53
2018-02-16T07:44:01.723Z,18.10
2018-02-16T07:46:29.220Z,17.80
2018-02-16T07:48:57.463Z,17.87
2018-02-16T07:51:24.944Z,18.40
2018-02-16T07:53:52.444Z,18.40
2018-02-16T07:56:19.921Z,17.00
2018-02-16T07:58:47.396Z,18.83
2018-02-16T08:01:14.889Z,17.93
2018-02-16T08:03:43.124Z,18.23
2018-02-16T08:06:10.593Z,18.60
2018-02-16T08:08:38.083Z,18.63
2018-02-16T08:11:06.320Z,18.67
2018-02-16T08:13:33.792Z,19.20
2018-02-16T08:16:01.304Z,19.40
2018-02-16T08:18:28.779Z,17.00
2018-02-16T08:20:56.252Z,18.73
2018-02-16T08:23:23.736Z,21.70
2018-02-16T08:25:51.207Z,20.30
2018-02-16T08:28:19.472Z,20.40
2018-02-16T08:30:46.946Z,19.00
2018-02-16T08:33:15.180Z,19.43
2018-02-16T08:35:42.675Z,20.07
2018-02-16T08:38:10.148Z,20.17
2018-02-16T08:40:38.380Z,20.87
2018-02-16T08:43:05.877Z,19.97
2018-02-16T08:45:34.115Z,19.27
2018-02-16T08:48:01.589Z,20.47
2018-02-16T08:50:29.080Z,20.90
2018-02-16T08:52:57.316Z,23.07
2018-02-16T08:55:24.792Z,22.63
2018-02-16T08:57:53.080Z,21.20
2018-02-16T09:00:21.319Z,25.67
2018-02-16T09:02:48.804Z,24.97
2018-02-16T09:05:16.304Z,26.50
2018-02-16T09:07:43.828Z,26.47
2018-02-16T09:10:11.300Z,30.17
2018-02-16T09:12:39.556Z,30.70
2018-02-16T09:15:07.024Z,25.27
2018-02-16T09:17:35.267Z,25.20
2018-02-16T09:20:02.757Z,24.20
2018-02-16T09:22:30.239Z,25.30
2018-02-16T09:24:58.535Z,25.57
2018-02-16T09:27:26.004Z,28.33
2018-02-16T09:29:53.473Z,27.93
2018-02-16T09:32:20.964Z,28.93
2018-02-16T09:34:48.536Z,28.07
2018-02-16T09:37:17.631Z,25.00
2018-02-16T09:39:46.592Z,27.43
2018-02-16T09:42:14.081Z,29.90
2018-02-16T09:44:42.361Z,29.77
2018-02-16T09:47:10.604Z,30.00
2018-02-16T09:49:38.187Z,31.33
2018-02-16T09:52:05.684Z,29.80
2018-02-16T09:54:33.200Z,30.10
2018-02-16T09:57:00.641Z,31.47
2018-02-16T09:59:28.136Z,30.57
2018-02-16T10:01:56.376Z,29.90
2018-02-16T10:04:23.853Z,31.73
2018-02-16T10:06:51.346Z,31.33
2018-02-16T10:09:19.584Z,30.87
2018-02-16T10:11:47.056Z,32.23
2018-02-16T10:14:14.548Z,35.10
2018-02-16T10:16:42.020Z,32.13
2018-02-16T10:19:09.489Z,34.57
2018-02-16T10:21:36.992Z,33.00
2018-02-16T10:24:04.471Z,34.00
2018-02-16T10:26:31.952Z,45.07
2018-02-16T10:28:59.448Z,42.10
2018-02-16T10:31:26.917Z,37.10
2018-02-16T10:33:55.968Z,34.40
2018-02-16T10:36:23.452Z,35.77
2018-02-16T10:38:50.925Z,35.37
2018-02-16T10:41:18.416Z,32.77
2018-02-16T10:43:46.656Z,34.43
2018-02-16T10:46:14.128Z,36.00
2018-02-16T10:48:42.393Z,37.03
2018-02-16T10:51:09.868Z,34.33
2018-02-16T10:53:37.336Z,36.57
2018-02-16T10:56:05.600Z,36.93
2018-02-16T10:58:33.184Z,34.33
2018-02-16T11:01:07.288Z,36.47
2018-02-16T11:03:38.528Z,42.10
2018-02-16T11:06:11.672Z,45.17
2018-02-16T11:08:44.917Z,40.57
2018-02-16T11:11:13.181Z,41.40
2018-02-16T11:13:40.653Z,45.07
2018-02-16T11:16:08.125Z,44.00
2018-02-16T11:18:36.389Z,45.40
2018-02-16T11:21:04.633Z,43.57
2018-02-16T11:23:32.103Z,43.67
2018-02-16T11:25:59.602Z,44.40
2018-02-16T11:28:27.849Z,45.03
2018-02-16T11:30:55.330Z,44.60
2018-02-16T11:33:23.596Z,43.83
2018-02-16T11:35:51.852Z,45.47
2018-02-16T11:38:19.323Z,45.53
2018-02-16T11:40:46.808Z,45.37
2018-02-16T11:43:15.053Z,47.10
2018-02-16T11:45:42.541Z,48.70
2018-02-16T11:48:10.784Z,47.20
2018-02-16T11:50:38.260Z,47.37
2018-02-16T11:53:05.786Z,47.97
2018-02-16T11:55:33.302Z,45.83
2018-02-16T11:58:01.595Z,46.17
2018-02-16T12:00:29.122Z,48.20
2018-02-16T12:02:57.493Z,50.13
2018-02-16T12:05:25.020Z,45.17
2018-02-16T12:07:52.544Z,52.37
2018-02-16T12:10:20.126Z,45.53
2018-02-16T12:12:47.647Z,45.13
2018-02-16T12:15:16.083Z,41.03
2018-02-16T12:17:43.705Z,44.77
2018-02-16T12:20:11.242Z,42.60
2018-02-16T12:22:38.767Z,45.93
2018-02-16T12:25:06.344Z,45.53
2018-02-16T12:27:33.900Z,45.30
2018-02-16T12:30:02.230Z,44.30
2018-02-16T12:32:29.772Z,46.23
2018-02-16T12:34:58.066Z,45.00
2018-02-16T12:37:25.652Z,44.20
2018-02-16T12:39:53.181Z,47.73
2018-02-16T12:42:21.472Z,44.33
2018-02-16T12:44:49.044Z,46.13
2018-02-16T12:47:16.571Z,47.67
2018-02-16T12:49:44.151Z,43.60
2018-02-16T12:52:11.703Z,44.97
2018-02-16T12:54:39.197Z,48.50
2018-02-16T12:57:06.676Z,44.80
2018-02-16T12:59:34.167Z,43.43
2018-02-16T13:02:02.477Z,46.83
2018-02-16T13:04:29.979Z,44.47
2018-02-16T13:06:57.473Z,42.43
2018-02-16T13:12:07.736Z,42.00
2018-02-16T13:14:35.973Z,43.83
2018-02-16T13:17:03.443Z,43.70
2018-02-16T13:19:30.958Z,47.20
2018-02-16T13:21:58.433Z,48.13
2018-02-16T13:24:25.908Z,47.97
2018-02-16T13:26:53.400Z,45.93
2018-02-16T13:29:21.640Z,45.63
2018-02-16T13:31:49.138Z,46.90
2018-02-16T13:34:18.129Z,48.80
2018-02-16T13:36:45.600Z,49.60
2018-02-16T13:39:13.840Z,49.30
2018-02-16T13:41:41.416Z,50.17
2018-02-16T13:44:08.888Z,48.17
2018-02-16T13:46:37.128Z,48.53
2018-02-16T13:49:04.624Z,49.10
2018-02-16T13:51:32.873Z,50.03
2018-02-16T13:54:00.352Z,47.27
2018-02-16T13:56:27.844Z,47.23
2018-02-16T13:58:55.320Z,49.17
2018-02-16T14:01:22.794Z,45.30
2018-02-16T14:03:50.273Z,43.73
2018-02-16T14:06:17.741Z,45.10
2018-02-16T14:08:45.315Z,40.87
2018-02-16T14:11:13.552Z,44.07
2018-02-16T14:13:41.020Z,41.20
2018-02-16T14:16:08.516Z,43.50
2018-02-16T14:18:37.032Z,44.00
2018-02-16T14:21:05.009Z,43.80
2018-02-16T14:23:32.768Z,43.33
2018-02-16T14:26:01.212Z,43.87
2018-02-16T14:28:29.944Z,44.00
2018-02-16T14:30:58.006Z,44.37
2018-02-16T14:33:26.228Z,41.83
2018-02-16T14:35:54.563Z,45.03
2018-02-16T14:38:22.670Z,43.80
2018-02-16T14:40:50.807Z,44.83
2018-02-16T14:43:21.614Z,44.43
2018-02-16T14:45:51.795Z,47.27
2018-02-16T14:48:21.934Z,45.00
2018-02-16T14:50:52.630Z,43.20
2018-02-16T14:53:20.666Z,43.73
2018-02-16T14:55:49.609Z,45.27
2018-02-16T14:58:20.490Z,47.10
2018-02-16T15:00:54.190Z,45.20
2018-02-16T15:03:23.081Z,45.87
2018-02-16T15:05:53.773Z,46.80
2018-02-16T15:08:21.930Z,51.20
2018-02-16T15:10:51.025Z,52.17
2018-02-16T15:13:20.034Z,51.33
2018-02-16T15:15:48.402Z,52.23
2018-02-16T15:18:19.712Z,49.60
2018-02-16T15:20:47.953Z,52.00
2018-02-16T15:23:15.693Z,51.27
2018-02-16T15:25:46.061Z,53.60
2018-02-16T15:28:14.540Z,51.67
2018-02-16T15:30:43.559Z,53.63
2018-02-16T15:33:17.267Z,52.60
2018-02-16T15:35:45.612Z,53.43
2018-02-16T15:38:13.564Z,52.47
2018-02-16T15:40:45.101Z,49.97
2018-02-16T15:43:19.059Z,52.00
2018-02-16T15:45:48.452Z,50.53
2018-02-16T15:48:19.200Z,53.50
2018-02-16T15:50:54.026Z,49.80
2018-02-16T15:53:24.688Z,46.67
2018-02-16T15:55:52.461Z,46.83
2018-02-16T15:58:20.695Z,47.93
2018-02-16T16:00:48.171Z,50.03
2018-02-16T16:03:15.664Z,53.30
2018-02-16T16:05:43.134Z,54.73
2018-02-16T16:08:10.652Z,51.90
2018-02-16T16:10:38.148Z,54.93
2018-02-16T16:13:05.620Z,49.90
2018-02-16T16:15:33.088Z,50.77
2018-02-16T16:18:06.551Z,49.37
2018-02-16T16:20:36.943Z,49.67
2018-02-16T16:23:08.397Z,51.87
2018-02-16T16:25:35.877Z,50.70
2018-02-16T16:28:05.238Z,52.20
2018-02-16T16:30:34.105Z,51.27
2018-02-16T16:33:02.812Z,51.80
2018-02-16T16:35:30.287Z,53.93
2018-02-16T16:37:57.776Z,49.80
2018-02-16T16:40:27.584Z,52.30
2018-02-16T16:42:57.916Z,50.13
2018-02-16T16:45:26.970Z,49.70
2018-02-16T16:47:59.436Z,54.87
2018-02-16T16:50:28.492Z,55.53
2018-02-16T16:52:55.965Z,52.87
2018-02-16T16:55:25.644Z,53.40
2018-02-16T16:57:57.196Z,54.23
2018-02-16T17:00:26.913Z,54.10
2018-02-16T17:02:56.318Z,53.70
2018-02-16T17:05:24.561Z,54.73
2018-02-16T17:07:52.040Z,55.27
2018-02-16T17:10:20.284Z,56.30
2018-02-16T17:12:47.798Z,57.47
2018-02-16T17:15:16.050Z,55.80
2018-02-16T17:17:43.528Z,55.47
2018-02-16T17:20:11.793Z,55.37
2018-02-16T17:22:40.054Z,57.40
2018-02-16T17:25:07.537Z,58.97
2018-02-16T17:27:35.780Z,54.90
2018-02-16T17:30:03.276Z,60.20
2018-02-16T17:32:31.507Z,58.47
2018-02-16T17:34:58.976Z,56.90
2018-02-16T17:37:26.456Z,61.43
2018-02-16T17:39:53.928Z,56.67
2018-02-16T17:42:22.194Z,57.60
2018-02-16T17:44:50.436Z,56.70
2018-02-16T17:47:17.913Z,57.37
2018-02-16T17:49:45.400Z,61.07
2018-02-16T17:52:13.636Z,59.47
2018-02-16T17:54:41.108Z,59.63
2018-02-16T17:57:10.104Z,65.93
2018-02-16T17:59:37.576Z,61.93
2018-02-16T18:02:05.820Z,64.43
2018-02-16T18:04:33.311Z,62.60
2018-02-16T18:07:01.547Z,64.10
2018-02-16T18:09:29.016Z,63.53
2018-02-16T18:11:56.500Z,61.30
2018-02-16T18:14:23.978Z,60.60
2018-02-16T18:16:52.238Z,59.47
2018-02-16T18:19:20.484Z,59.00
2018-02-16T18:21:47.960Z,58.77
2018-02-16T18:24:15.456Z,61.10
2018-02-16T18:26:43.711Z,61.70
2018-02-16T18:29:11.184Z,55.70
2018-02-16T18:31:39.423Z,59.40
2018-02-16T18:34:06.900Z,60.70
2018-02-16T18:36:34.388Z,57.07
2018-02-16T18:39:01.920Z,56.57
2018-02-16T18:41:29.390Z,62.97
2018-02-16T18:43:57.649Z,62.83
2018-02-16T18:46:25.128Z,56.10
2018-02-16T18:48:53.369Z,56.93
2018-02-16T18:51:20.868Z,59.90
2018-02-16T18:53:49.172Z,60.63
2018-02-16T18:56:16.645Z,58.43
2018-02-16T18:58:44.146Z,61.40
2018-02-16T19:01:12.397Z,62.90
2018-02-16T19:03:39.887Z,61.43
2018-02-16T19:06:08.149Z,61.37
2018-02-16T19:08:35.711Z,60.97
2018-02-16T19:11:03.181Z,72.17
2018-02-16T19:13:31.502Z,64.83
2018-02-16T19:15:58.980Z,58.07
2018-02-16T19:18:26.480Z,59.07
2018-02-16T19:20:53.952Z,58.40
2018-02-16T19:23:22.211Z,58.37
2018-02-16T19:25:49.692Z,59.07
2018-02-16T19:28:17.929Z,59.30
2018-02-16T19:30:45.423Z,58.07
2018-02-16T19:33:13.664Z,59.27
2018-02-16T19:35:41.140Z,55.70
2018-02-16T19:38:08.621Z,54.73
2018-02-16T19:40:36.860Z,54.50
2018-02-16T19:43:04.481Z,54.87
2018-02-16T19:45:31.987Z,56.10
2018-02-16T19:47:59.467Z,52.77
2018-02-16T19:50:27.735Z,55.60
2018-02-16T19:52:55.204Z,55.93
2018-02-16T19:55:23.444Z,50.57
2018-02-16T19:57:50.940Z,51.20
2018-02-16T20:00:19.176Z,52.67
2018-02-16T20:02:46.709Z,51.20
2018-02-16T20:05:14.234Z,50.70
2018-02-16T20:07:42.468Z,52.20
2018-02-16T20:10:09.944Z,50.77
2018-02-16T20:12:37.434Z,52.13
2018-02-16T20:15:05.740Z,56.90
2018-02-16T20:17:33.212Z,52.47
2018-02-16T20:20:00.708Z,51.20
2018-02-16T20:22:28.176Z,53.90
2018-02-16T20:24:56.420Z,53.47
2018-02-16T20:27:23.911Z,53.73
2018-02-16T20:29:52.167Z,53.23
2018-02-16T20:32:19.635Z,52.10
2018-02-16T20:34:47.124Z,58.30
2018-02-16T20:37:15.363Z,55.47
2018-02-16T20:39:42.836Z,56.23
2018-02-16T20:42:10.312Z,55.27
2018-02-16T20:44:38.544Z,52.00
2018-02-16T20:47:06.034Z,49.53
2018-02-16T20:49:34.285Z,51.03
2018-02-16T20:52:01.795Z,48.20
2018-02-16T20:54:30.036Z,46.33
2018-02-16T20:56:57.544Z,48.70
2018-02-16T20:59:25.012Z,47.33
2018-02-16T21:01:52.504Z,46.60
2018-02-16T21:04:19.971Z,51.10
2018-02-16T21:06:47.496Z,44.57
2018-02-16T21:09:14.968Z,46.17
2018-02-16T21:11:42.440Z,49.33
2018-02-16T21:14:09.954Z,51.20
2018-02-16T21:16:37.433Z,48.70
2018-02-16T21:19:04.906Z,47.03
2018-02-16T21:21:32.424Z,46.50
2018-02-16T21:23:59.917Z,46.77
2018-02-16T21:26:27.428Z,47.60
2018-02-16T21:28:55.693Z,51.57
2018-02-16T21:31:23.982Z,53.37
2018-02-16T21:33:51.444Z,49.90
2018-02-16T21:36:19.708Z,52.27
2018-02-16T21:38:47.987Z,61.37
2018-02-16T21:41:15.444Z,62.00
2018-02-16T21:43:43.726Z,56.50
2018-02-16T21:46:11.989Z,53.40
2018-02-16T21:48:39.460Z,54.03
2018-02-16T21:51:07.715Z,55.77
2018-02-16T21:53:35.211Z,53.40
2018-02-16T21:56:02.748Z,56.20
2018-02-16T21:58:30.280Z,57.20
2018-02-16T22:00:57.752Z,57.67
2018-02-16T22:03:25.230Z,57.03
2018-02-16T22:05:53.476Z,57.30
2018-02-16T22:08:20.944Z,57.33
2018-02-16T22:10:48.526Z,59.90
2018-02-16T22:13:18.747Z,58.40
2018-02-16T22:15:46.992Z,62.50
2018-02-16T22:18:14.480Z,61.67
2018-02-16T22:20:41.957Z,56.37
2018-02-16T22:23:10.195Z,59.53
2018-02-16T22:25:37.687Z,58.23
2018-02-16T22:28:05.924Z,58.07
2018-02-16T22:30:33.397Z,61.70
2018-02-16T22:33:00.892Z,69.33
2018-02-16T22:35:29.128Z,58.53
2018-02-16T22:37:56.604Z,58.27
2018-02-16T22:40:24.088Z,60.17
2018-02-16T22:42:51.557Z,57.20
2018-02-16T22:45:19.052Z,56.00
2018-02-16T22:47:46.520Z,57.50
2018-02-16T22:50:13.996Z,55.30
2018-02-16T22:52:42.263Z,56.07
2018-02-16T22:55:09.760Z,57.37
2018-02-16T22:57:37.236Z,56.97
2018-02-16T23:00:04.820Z,55.10
2018-02-16T23:02:32.288Z,52.17
2018-02-16T23:04:59.757Z,56.67
2018-02-16T23:07:27.255Z,50.60
2018-02-16T23:09:54.793Z,51.40
2018-02-16T23:12:23.069Z,48.30
2018-02-16T23:14:51.349Z,47.30
2018-02-16T23:17:19.620Z,48.67
2018-02-16T23:19:47.857Z,46.10
2018-02-16T23:22:15.366Z,46.23
2018-02-16T23:24:43.609Z,89.77
2018-02-16T23:27:11.091Z,40.97
2018-02-16T23:29:38.588Z,43.33
2018-02-16T23:32:06.056Z,42.13
2018-02-16T23:34:33.527Z,41.33
2018-02-16T23:37:01.012Z,41.73
2018-02-16T23:39:28.485Z,42.20
2018-02-16T23:41:55.963Z,42.20
2018-02-16T23:44:24.170Z,49.83
2018-02-16T23:46:51.649Z,39.23
2018-02-16T23:49:19.889Z,40.93
2018-02-16T23:51:47.381Z,64.90
2018-02-16T23:54:15.621Z,41.87
2018-02-16T23:56:43.105Z,41.93
2018-02-16T23:59:11.369Z,41.17
